createdAt,value
2022-08-19T00:00:48.716Z,963.80
2022-08-19T00:01:49.672Z,963.83
2022-08-19T00:02:50.359Z,963.74
2022-08-19T00:03:49.547Z,963.75
2022-08-19T00:04:50.192Z,963.71
2022-08-19T00:05:50.108Z,963.69
2022-08-19T00:06:50.367Z,963.74
2022-08-19T00:07:50.599Z,963.75
2022-08-19T00:08:50.848Z,963.75
2022-08-19T00:09:51.098Z,963.75
2022-08-19T00:10:51.378Z,963.70
2022-08-19T00:11:51.610Z,963.69
2022-08-19T00:12:51.975Z,963.70
2022-08-19T00:13:52.120Z,963.72
2022-08-19T00:14:52.371Z,963.76
2022-08-19T00:15:52.611Z,963.76
2022-08-19T00:16:52.862Z,963.81
2022-08-19T00:17:53.108Z,963.81
2022-08-19T00:18:53.357Z,963.83
2022-08-19T00:19:53.600Z,963.89
2022-08-19T00:20:53.852Z,963.93
2022-08-19T00:21:54.092Z,963.87
2022-08-19T00:22:54.459Z,963.88
2022-08-19T00:23:54.592Z,963.89
2022-08-19T00:24:55.111Z,963.92
2022-08-19T00:25:55.135Z,963.89
2022-08-19T00:26:55.395Z,963.87
2022-08-19T00:27:55.633Z,963.90
2022-08-19T00:28:55.876Z,963.91
2022-08-19T00:29:57.009Z,963.95
2022-08-19T00:30:56.437Z,963.99
2022-08-19T00:31:56.678Z,963.96
2022-08-19T00:32:56.947Z,963.94
2022-08-19T00:33:57.188Z,963.96
2022-08-19T00:34:58.228Z,963.90
2022-08-19T00:35:57.778Z,963.94
2022-08-19T00:36:58.020Z,963.96
2022-08-19T00:37:58.259Z,963.98
2022-08-19T00:38:58.499Z,963.97
2022-08-19T00:39:58.797Z,964.02
2022-08-19T00:40:59.049Z,963.99
2022-08-19T00:41:59.293Z,963.97
2022-08-19T00:42:59.531Z,964.01
2022-08-19T00:43:59.771Z,963.98
2022-08-19T00:45:00.031Z,963.99
2022-08-19T00:46:00.304Z,964.02
2022-08-19T00:47:01.088Z,964.04
2022-08-19T00:48:00.742Z,964.06
2022-08-19T00:49:00.990Z,964.03
2022-08-19T00:50:02.041Z,963.95
2022-08-19T00:51:01.464Z,963.94
2022-08-19T00:52:01.704Z,963.95
2022-08-19T00:53:01.954Z,963.90
2022-08-19T00:54:02.205Z,963.88
2022-08-19T00:55:03.214Z,963.83
2022-08-19T00:56:02.766Z,963.75
2022-08-19T00:57:02.996Z,963.73
2022-08-19T00:58:03.238Z,963.72
2022-08-19T00:59:04.467Z,963.72
2022-08-19T01:00:04.587Z,963.70
2022-08-19T01:01:04.017Z,963.66
2022-08-19T01:02:04.257Z,963.68
2022-08-19T01:03:04.506Z,963.65
2022-08-19T01:04:04.748Z,963.64
2022-08-19T01:05:05.812Z,963.65
2022-08-19T01:06:05.299Z,963.61
2022-08-19T01:07:05.551Z,963.60
2022-08-19T01:08:05.789Z,963.60
2022-08-19T01:09:06.046Z,963.56
2022-08-19T01:10:06.291Z,963.55
2022-08-19T01:11:06.540Z,963.52
2022-08-19T01:12:06.781Z,963.49
2022-08-19T01:13:07.029Z,963.45
2022-08-19T01:14:07.266Z,963.46
2022-08-19T01:15:07.512Z,963.51
2022-08-19T01:16:07.753Z,963.55
2022-08-19T01:17:08.002Z,963.55
2022-08-19T01:18:08.243Z,963.58
2022-08-19T01:19:08.491Z,963.66
2022-08-19T01:20:09.144Z,963.65
2022-08-19T01:21:09.054Z,963.68
2022-08-19T01:22:14.328Z,963.73
2022-08-19T01:23:10.537Z,963.76
2022-08-19T01:24:09.836Z,963.76
2022-08-19T01:25:14.956Z,963.79
2022-08-19T01:26:10.396Z,963.75
2022-08-19T01:27:10.837Z,963.82
2022-08-19T01:28:11.318Z,963.82
2022-08-19T01:29:11.207Z,963.85
2022-08-19T01:30:12.150Z,963.88
2022-08-19T01:31:11.687Z,963.81
2022-08-19T01:32:32.441Z,963.75
2022-08-19T01:33:13.191Z,963.73
2022-08-19T01:34:12.489Z,963.72
2022-08-19T01:35:13.229Z,963.71
2022-08-19T01:36:13.020Z,963.67
2022-08-19T01:37:13.268Z,963.67
2022-08-19T01:38:14.490Z,963.68
2022-08-19T01:39:13.730Z,963.67
2022-08-19T01:40:14.103Z,963.63
2022-08-19T01:41:14.232Z,963.61
2022-08-19T01:42:14.472Z,963.62
2022-08-19T01:43:14.714Z,963.70
2022-08-19T01:44:19.104Z,963.80
2022-08-19T01:45:15.203Z,963.90
2022-08-19T01:46:15.443Z,964.07
2022-08-19T01:47:15.694Z,964.16
2022-08-19T01:48:15.934Z,964.22
2022-08-19T01:49:16.186Z,964.29
2022-08-19T01:50:17.142Z,964.27
2022-08-19T01:51:16.685Z,964.30
2022-08-19T01:52:17.005Z,964.35
2022-08-19T01:53:17.217Z,964.34
2022-08-19T01:54:23.418Z,964.29
2022-08-19T01:55:18.686Z,964.20
2022-08-19T01:56:17.987Z,964.13
2022-08-19T01:57:18.229Z,964.09
2022-08-19T01:58:18.470Z,964.10
2022-08-19T01:59:18.717Z,964.06
2022-08-19T02:00:19.210Z,964.12
2022-08-19T02:01:19.291Z,964.14
2022-08-19T02:02:19.549Z,964.14
2022-08-19T02:03:19.789Z,964.11
2022-08-19T02:04:20.031Z,964.10
2022-08-19T02:05:21.010Z,964.07
2022-08-19T02:06:20.561Z,964.03
2022-08-19T02:07:21.810Z,964.02
2022-08-19T02:08:21.110Z,964.02
2022-08-19T02:09:21.361Z,964.11
2022-08-19T02:10:21.601Z,964.08
2022-08-19T02:11:21.879Z,964.13
2022-08-19T02:12:22.120Z,964.13
2022-08-19T02:13:26.373Z,964.12
2022-08-19T02:14:22.704Z,964.16
2022-08-19T02:15:22.943Z,964.17
2022-08-19T02:16:23.200Z,964.18
2022-08-19T02:17:23.433Z,964.18
2022-08-19T02:18:28.117Z,964.15
2022-08-19T02:19:23.925Z,964.17
2022-08-19T02:20:24.178Z,964.20
2022-08-19T02:21:24.415Z,964.18
2022-08-19T02:22:24.657Z,964.19
2022-08-19T02:23:24.916Z,964.18
2022-08-19T02:24:25.146Z,964.23
2022-08-19T02:25:25.407Z,964.26
2022-08-19T02:26:25.648Z,964.22
2022-08-19T02:27:25.897Z,964.24
2022-08-19T02:28:26.135Z,964.24
2022-08-19T02:29:26.377Z,964.18
2022-08-19T02:30:27.199Z,964.17
2022-08-19T02:31:26.873Z,964.20
2022-08-19T02:32:27.110Z,964.21
2022-08-19T02:33:27.359Z,964.18
2022-08-19T02:34:27.602Z,964.18
2022-08-19T02:35:28.260Z,964.16
2022-08-19T02:36:28.171Z,964.15
2022-08-19T02:37:28.410Z,964.12
2022-08-19T02:38:28.694Z,964.11
2022-08-19T02:39:28.932Z,964.08
2022-08-19T02:40:29.164Z,964.08
2022-08-19T02:41:29.410Z,964.10
2022-08-19T02:42:29.653Z,964.08
2022-08-19T02:43:29.893Z,964.06
2022-08-19T02:44:31.977Z,964.01
2022-08-19T02:45:30.473Z,964.02
2022-08-19T02:46:30.717Z,964.02
2022-08-19T02:47:30.954Z,963.99
2022-08-19T02:48:31.267Z,964.01
2022-08-19T02:49:34.795Z,963.93
2022-08-19T02:50:31.787Z,963.94
2022-08-19T02:51:32.034Z,963.92
2022-08-19T02:52:32.276Z,963.84
2022-08-19T02:53:32.514Z,963.75
2022-08-19T02:54:32.756Z,963.77
2022-08-19T02:55:33.864Z,963.77
2022-08-19T02:56:34.255Z,963.84
2022-08-19T02:57:33.559Z,963.87
2022-08-19T02:58:33.798Z,963.95
2022-08-19T02:59:34.049Z,964.03
2022-08-19T03:00:35.121Z,964.02
2022-08-19T03:01:35.735Z,964.06
2022-08-19T03:02:34.928Z,964.07
2022-08-19T03:03:35.257Z,964.12
2022-08-19T03:04:35.451Z,964.13
2022-08-19T03:05:55.947Z,964.11
2022-08-19T03:06:36.959Z,964.12
2022-08-19T03:07:36.272Z,964.12
2022-08-19T03:08:36.511Z,964.16
2022-08-19T03:09:36.761Z,964.22
2022-08-19T03:10:37.004Z,964.28
2022-08-19T03:11:37.263Z,964.33
2022-08-19T03:12:37.513Z,964.30
2022-08-19T03:13:37.767Z,964.28
2022-08-19T03:14:38.004Z,964.32
2022-08-19T03:15:38.265Z,964.35
2022-08-19T03:16:38.505Z,964.36
2022-08-19T03:17:38.755Z,964.34
2022-08-19T03:18:38.996Z,964.30
2022-08-19T03:19:39.230Z,964.27
2022-08-19T03:20:39.477Z,964.27
2022-08-19T03:21:39.717Z,964.27
2022-08-19T03:22:39.958Z,964.25
2022-08-19T03:23:40.207Z,964.36
2022-08-19T03:24:40.468Z,964.35
2022-08-19T03:25:40.759Z,964.40
2022-08-19T03:26:40.997Z,964.43
2022-08-19T03:27:41.238Z,964.48
2022-08-19T03:28:41.479Z,964.48
2022-08-19T03:29:43.090Z,964.54
2022-08-19T03:30:43.092Z,964.63
2022-08-19T03:31:51.984Z,964.73
2022-08-19T03:32:45.517Z,964.75
2022-08-19T03:33:42.771Z,964.82
2022-08-19T03:34:43.011Z,964.83
2022-08-19T03:35:43.260Z,964.88
2022-08-19T03:36:43.499Z,964.94
2022-08-19T03:37:43.743Z,964.94
2022-08-19T03:38:43.983Z,964.91
2022-08-19T03:39:44.260Z,964.93
2022-08-19T03:40:44.530Z,964.90
2022-08-19T03:41:46.247Z,964.88
2022-08-19T03:42:49.095Z,964.90
2022-08-19T03:43:46.354Z,964.94
2022-08-19T03:44:45.701Z,964.92
2022-08-19T03:45:45.944Z,964.91
2022-08-19T03:46:46.184Z,964.86
2022-08-19T03:47:46.425Z,964.89
2022-08-19T03:48:46.667Z,964.85
2022-08-19T03:49:46.906Z,964.86
2022-08-19T03:50:47.156Z,964.87
2022-08-19T03:51:47.397Z,964.88
2022-08-19T03:52:47.698Z,964.90
2022-08-19T03:53:47.937Z,964.89
2022-08-19T03:54:48.178Z,964.90
2022-08-19T03:55:48.428Z,964.91
2022-08-19T03:56:48.669Z,964.96
2022-08-19T03:57:48.918Z,964.96
2022-08-19T03:58:49.156Z,964.97
2022-08-19T03:59:49.399Z,964.98
2022-08-19T04:00:49.695Z,964.99
2022-08-19T04:01:49.940Z,965.02
2022-08-19T04:02:58.462Z,965.04
2022-08-19T04:03:51.411Z,965.06
2022-08-19T04:04:50.711Z,965.03
2022-08-19T04:05:50.962Z,965.10
2022-08-19T04:06:51.202Z,965.10
2022-08-19T04:07:51.451Z,965.08
2022-08-19T04:08:51.694Z,965.10
2022-08-19T04:09:51.933Z,965.11
2022-08-19T04:10:52.189Z,965.12
2022-08-19T04:11:52.422Z,965.10
2022-08-19T04:12:52.819Z,965.18
2022-08-19T04:13:52.935Z,965.16
2022-08-19T04:14:53.186Z,965.20
2022-08-19T04:15:53.425Z,965.18
2022-08-19T04:16:53.673Z,965.16
2022-08-19T04:17:53.906Z,965.22
2022-08-19T04:18:54.156Z,965.21
2022-08-19T04:19:54.409Z,965.23
2022-08-19T04:20:54.657Z,965.23
2022-08-19T04:21:54.907Z,965.24
2022-08-19T04:22:55.260Z,965.20
2022-08-19T04:23:55.860Z,965.21
2022-08-19T04:24:55.740Z,965.21
2022-08-19T04:25:55.979Z,965.19
2022-08-19T04:26:56.229Z,965.17
2022-08-19T04:27:56.469Z,965.19
2022-08-19T04:28:56.719Z,965.21
2022-08-19T04:29:56.960Z,965.19
2022-08-19T04:30:57.210Z,965.18
2022-08-19T04:31:57.452Z,965.14
2022-08-19T04:32:57.699Z,965.15
2022-08-19T04:33:57.942Z,965.14
2022-08-19T04:35:02.459Z,965.07
2022-08-19T04:35:59.424Z,965.05
2022-08-19T04:36:58.729Z,965.01
2022-08-19T04:37:58.970Z,964.99
2022-08-19T04:38:59.214Z,964.93
2022-08-19T04:40:02.497Z,964.92
2022-08-19T04:40:59.694Z,964.89
2022-08-19T04:41:59.934Z,964.83
2022-08-19T04:43:00.214Z,964.82
2022-08-19T04:44:04.261Z,964.85
2022-08-19T04:45:00.734Z,964.82
2022-08-19T04:46:01.316Z,964.83
2022-08-19T04:47:01.470Z,964.84
2022-08-19T04:48:25.682Z,964.82
2022-08-19T04:49:10.450Z,964.77
2022-08-19T04:50:03.090Z,964.77
2022-08-19T04:51:02.398Z,964.71
2022-08-19T04:52:02.638Z,964.71
2022-08-19T04:53:02.878Z,964.69
2022-08-19T04:54:03.135Z,964.65
2022-08-19T04:55:03.376Z,964.60
2022-08-19T04:56:03.619Z,964.59
2022-08-19T04:57:03.859Z,964.55
2022-08-19T04:58:04.181Z,964.52
2022-08-19T04:59:04.424Z,964.50
2022-08-19T05:00:04.661Z,964.44
2022-08-19T05:01:04.936Z,964.47
2022-08-19T05:02:05.191Z,964.46
2022-08-19T05:03:05.432Z,964.46
2022-08-19T05:04:05.725Z,964.49
2022-08-19T05:05:05.977Z,964.46
2022-08-19T05:06:06.220Z,964.47
2022-08-19T05:07:06.465Z,964.44
2022-08-19T05:08:06.704Z,964.42
2022-08-19T05:09:06.945Z,964.39
2022-08-19T05:10:07.185Z,964.34
2022-08-19T05:11:07.442Z,964.32
2022-08-19T05:12:07.765Z,964.31
2022-08-19T05:13:08.026Z,964.34
2022-08-19T05:14:08.275Z,964.35
2022-08-19T05:15:08.556Z,964.34
2022-08-19T05:16:08.815Z,964.40
2022-08-19T05:17:26.601Z,964.40
2022-08-19T05:18:10.307Z,964.41
2022-08-19T05:19:09.627Z,964.38
2022-08-19T05:20:09.878Z,964.33
2022-08-19T05:21:10.150Z,964.33
2022-08-19T05:22:10.410Z,964.33
2022-08-19T05:23:20.527Z,964.32
2022-08-19T05:24:11.899Z,964.30
2022-08-19T05:25:13.490Z,964.29
2022-08-19T05:26:11.523Z,964.30
2022-08-19T05:27:11.761Z,964.33
2022-08-19T05:28:12.001Z,964.36
2022-08-19T05:29:12.254Z,964.38
2022-08-19T05:30:12.544Z,964.41
2022-08-19T05:31:12.837Z,964.40
2022-08-19T05:32:13.072Z,964.38
2022-08-19T05:33:13.322Z,964.35
2022-08-19T05:34:20.175Z,964.36
2022-08-19T05:35:14.793Z,964.34
2022-08-19T05:36:14.104Z,964.34
2022-08-19T05:37:14.354Z,964.34
2022-08-19T05:38:14.594Z,964.32
2022-08-19T05:39:14.843Z,964.33
2022-08-19T05:40:15.205Z,964.29
2022-08-19T05:41:15.408Z,964.26
2022-08-19T05:42:15.651Z,964.32
2022-08-19T05:43:15.894Z,964.39
2022-08-19T05:44:16.136Z,964.45
2022-08-19T05:45:16.385Z,964.47
2022-08-19T05:46:16.631Z,964.45
2022-08-19T05:47:16.875Z,964.49
2022-08-19T05:48:17.119Z,964.53
2022-08-19T05:49:17.368Z,964.55
2022-08-19T05:50:17.608Z,964.61
2022-08-19T05:51:17.879Z,964.62
2022-08-19T05:52:18.878Z,964.62
2022-08-19T05:53:18.450Z,964.60
2022-08-19T05:54:18.710Z,964.56
2022-08-19T05:55:18.971Z,964.52
2022-08-19T05:56:19.239Z,964.54
2022-08-19T05:57:19.529Z,964.57
2022-08-19T05:58:19.782Z,964.55
2022-08-19T05:59:20.082Z,964.56
2022-08-19T06:00:24.127Z,964.54
2022-08-19T06:01:20.583Z,964.53
2022-08-19T06:02:20.871Z,964.48
2022-08-19T06:03:21.183Z,964.54
2022-08-19T06:04:21.451Z,964.51
2022-08-19T06:05:21.705Z,964.51
2022-08-19T06:06:21.984Z,964.47
2022-08-19T06:07:22.306Z,964.44
2022-08-19T06:08:34.252Z,964.44
2022-08-19T06:09:23.802Z,964.48
2022-08-19T06:10:23.126Z,964.49
2022-08-19T06:11:23.396Z,964.48
2022-08-19T06:12:23.647Z,964.44
2022-08-19T06:13:23.908Z,964.41
2022-08-19T06:14:25.834Z,964.37
2022-08-19T06:15:24.448Z,964.36
2022-08-19T06:16:24.709Z,964.32
2022-08-19T06:17:24.959Z,964.37
2022-08-19T06:18:25.227Z,964.38
2022-08-19T06:19:25.499Z,964.41
2022-08-19T06:20:45.917Z,964.43
2022-08-19T06:21:27.001Z,964.39
2022-08-19T06:22:26.322Z,964.41
2022-08-19T06:23:26.570Z,964.39
2022-08-19T06:24:26.829Z,964.35
2022-08-19T06:25:30.432Z,964.38
2022-08-19T06:26:27.322Z,964.36
2022-08-19T06:27:27.582Z,964.38
2022-08-19T06:28:27.878Z,964.36
2022-08-19T06:29:28.133Z,964.35
2022-08-19T06:30:28.384Z,964.36
2022-08-19T06:31:28.647Z,964.38
2022-08-19T06:32:28.894Z,964.40
2022-08-19T06:33:29.144Z,964.45
2022-08-19T06:34:29.484Z,964.48
2022-08-19T06:35:29.769Z,964.45
2022-08-19T06:36:30.026Z,964.49
2022-08-19T06:37:31.253Z,964.50
2022-08-19T06:38:30.587Z,964.51
2022-08-19T06:39:30.873Z,964.50
2022-08-19T06:40:31.149Z,964.52
2022-08-19T06:41:31.408Z,964.49
2022-08-19T06:42:31.660Z,964.57
2022-08-19T06:43:31.918Z,964.54
2022-08-19T06:44:32.168Z,964.54
2022-08-19T06:45:34.541Z,964.56
2022-08-19T06:46:35.209Z,964.59
2022-08-19T06:47:33.039Z,964.58
2022-08-19T06:48:36.596Z,964.55
2022-08-19T06:49:34.558Z,964.47
2022-08-19T06:50:33.872Z,964.51
2022-08-19T06:52:34.390Z,964.41
2022-08-19T06:53:34.661Z,964.39
2022-08-19T06:54:40.593Z,964.32
2022-08-19T06:55:36.327Z,964.40
2022-08-19T06:56:35.452Z,964.33
2022-08-19T06:57:35.720Z,964.35
2022-08-19T06:58:35.973Z,964.39
2022-08-19T06:59:36.238Z,964.46
2022-08-19T07:00:36.484Z,964.46
2022-08-19T07:01:36.763Z,964.52
2022-08-19T07:02:37.014Z,964.50
2022-08-19T07:03:37.400Z,964.50
2022-08-19T07:04:37.637Z,964.47
2022-08-19T07:05:37.906Z,964.47
2022-08-19T07:06:44.268Z,964.50
2022-08-19T07:07:39.446Z,964.46
2022-08-19T07:09:39.065Z,964.42
2022-08-19T07:10:42.778Z,964.38
2022-08-19T07:11:39.607Z,964.34
2022-08-19T07:12:39.879Z,964.33
2022-08-19T07:13:40.138Z,964.32
2022-08-19T07:14:40.400Z,964.33
2022-08-19T07:15:40.659Z,964.33
2022-08-19T07:16:42.983Z,964.33
2022-08-19T07:17:41.977Z,964.33
2022-08-19T07:18:41.460Z,964.23
2022-08-19T07:19:41.761Z,964.24
2022-08-19T07:20:42.230Z,964.22
2022-08-19T07:21:42.331Z,964.16
2022-08-19T07:22:42.588Z,964.17
2022-08-19T07:23:42.854Z,964.09
2022-08-19T07:24:51.194Z,964.12
2022-08-19T07:25:44.580Z,964.11
2022-08-19T07:26:43.693Z,964.10
2022-08-19T07:27:46.370Z,964.09
2022-08-19T07:28:51.416Z,964.07
2022-08-19T07:29:45.505Z,964.02
2022-08-19T07:30:44.822Z,964.00
2022-08-19T07:31:45.055Z,964.02
2022-08-19T07:32:45.315Z,964.01
2022-08-19T07:33:45.576Z,964.03
2022-08-19T07:34:45.906Z,964.03
2022-08-19T07:35:46.168Z,964.01
2022-08-19T07:36:46.438Z,964.05
2022-08-19T07:37:46.766Z,964.05
2022-08-19T07:38:47.016Z,964.10
2022-08-19T07:39:47.313Z,964.16
2022-08-19T07:40:47.548Z,964.22
2022-08-19T07:41:47.811Z,964.27
2022-08-19T07:42:48.098Z,964.36
2022-08-19T07:43:48.359Z,964.33
2022-08-19T07:44:50.367Z,964.38
2022-08-19T07:45:48.888Z,964.37
2022-08-19T07:46:51.496Z,964.42
2022-08-19T07:47:51.352Z,964.42
2022-08-19T07:48:49.751Z,964.47
2022-08-19T07:49:50.010Z,964.56
2022-08-19T07:50:50.264Z,964.57
2022-08-19T07:51:50.531Z,964.62
2022-08-19T07:52:50.951Z,964.61
2022-08-19T07:53:51.120Z,964.72
2022-08-19T07:54:51.373Z,964.68
2022-08-19T07:55:51.633Z,964.68
2022-08-19T07:56:52.487Z,964.69
2022-08-19T07:57:52.136Z,964.67
2022-08-19T07:58:52.418Z,964.65
2022-08-19T07:59:52.675Z,964.62
2022-08-19T08:00:52.935Z,964.60
2022-08-19T08:01:54.066Z,964.62
2022-08-19T08:02:55.818Z,964.64
2022-08-19T08:03:53.806Z,964.65
2022-08-19T08:04:54.064Z,964.65
2022-08-19T08:05:54.317Z,964.65
2022-08-19T08:06:55.398Z,964.60
2022-08-19T08:07:54.838Z,964.57
2022-08-19T08:08:55.098Z,964.54
2022-08-19T08:10:56.859Z,964.56
2022-08-19T08:11:55.939Z,964.58
2022-08-19T08:13:10.181Z,964.59
2022-08-19T08:14:01.247Z,964.57
2022-08-19T08:14:57.710Z,964.58
2022-08-19T08:15:57.031Z,964.59
2022-08-19T08:16:57.320Z,964.58
2022-08-19T08:17:57.523Z,964.61
2022-08-19T08:18:57.801Z,964.61
2022-08-19T08:19:58.059Z,964.62
2022-08-19T08:20:58.322Z,964.66
2022-08-19T08:21:59.154Z,964.65
2022-08-19T08:22:58.841Z,964.68
2022-08-19T08:24:59.432Z,964.64
2022-08-19T08:25:59.692Z,964.61
2022-08-19T08:27:00.824Z,964.60
2022-08-19T08:28:00.263Z,964.60
2022-08-19T08:29:00.515Z,964.63
2022-08-19T08:30:02.826Z,964.62
2022-08-19T08:31:01.014Z,964.62
2022-08-19T08:32:02.095Z,964.61
2022-08-19T08:33:02.580Z,964.59
2022-08-19T08:34:01.837Z,964.59
2022-08-19T08:35:02.097Z,964.58
2022-08-19T08:36:04.020Z,964.59
2022-08-19T08:37:03.398Z,964.60
2022-08-19T08:38:02.840Z,964.60
2022-08-19T08:39:03.104Z,964.63
2022-08-19T08:40:03.386Z,964.64
2022-08-19T08:41:03.649Z,964.63
2022-08-19T08:42:09.956Z,964.63
2022-08-19T08:44:04.442Z,964.58
2022-08-19T08:45:04.741Z,964.55
2022-08-19T08:46:05.051Z,964.53
2022-08-19T08:47:05.395Z,964.47
2022-08-19T08:48:05.640Z,964.54
2022-08-19T08:49:06.882Z,964.46
2022-08-19T08:50:06.258Z,964.41
2022-08-19T08:51:06.517Z,964.38
2022-08-19T08:52:07.144Z,964.38
2022-08-19T08:53:07.117Z,964.37
2022-08-19T08:54:07.384Z,964.39
2022-08-19T08:55:10.420Z,964.44
2022-08-19T08:56:07.854Z,964.41
2022-08-19T08:57:08.958Z,964.36
2022-08-19T08:58:08.405Z,964.39
2022-08-19T08:59:08.670Z,964.40
2022-08-19T09:00:15.061Z,964.39
2022-08-19T09:01:10.224Z,964.34
2022-08-19T09:02:09.457Z,964.34
2022-08-19T09:03:09.717Z,964.37
2022-08-19T09:04:09.974Z,964.35
2022-08-19T09:05:10.305Z,964.37
2022-08-19T09:06:12.028Z,964.44
2022-08-19T09:07:18.682Z,964.47
2022-08-19T09:08:13.799Z,964.51
2022-08-19T09:09:11.842Z,964.59
2022-08-19T09:10:11.579Z,964.63
2022-08-19T09:11:11.850Z,964.62
2022-08-19T09:12:12.119Z,964.64
2022-08-19T09:13:12.384Z,964.63
2022-08-19T09:14:29.195Z,964.66
2022-08-19T09:15:13.872Z,964.69
2022-08-19T09:16:13.183Z,964.73
2022-08-19T09:17:13.506Z,964.73
2022-08-19T09:18:15.314Z,964.72
2022-08-19T09:19:14.994Z,964.71
2022-08-19T09:20:15.295Z,964.74
2022-08-19T09:21:14.611Z,964.75
2022-08-19T09:22:15.144Z,964.81
2022-08-19T09:23:16.146Z,964.82
2022-08-19T09:24:15.457Z,964.84
2022-08-19T09:25:15.847Z,964.80
2022-08-19T09:26:16.453Z,964.78
2022-08-19T09:27:18.572Z,964.76
2022-08-19T09:28:22.469Z,964.74
2022-08-19T09:29:17.936Z,964.71
2022-08-19T09:30:17.318Z,964.67
2022-08-19T09:31:17.563Z,964.65
2022-08-19T09:32:26.448Z,964.66
2022-08-19T09:33:19.187Z,964.65
2022-08-19T09:34:20.983Z,964.63
2022-08-19T09:35:18.815Z,964.62
2022-08-19T09:36:24.298Z,964.58
2022-08-19T09:37:20.309Z,964.59
2022-08-19T09:38:19.589Z,964.53
2022-08-19T09:39:19.849Z,964.55
2022-08-19T09:40:20.206Z,964.52
2022-08-19T09:41:20.459Z,964.54
2022-08-19T09:42:30.344Z,964.58
2022-08-19T09:43:33.051Z,964.56
2022-08-19T09:44:22.240Z,964.55
2022-08-19T09:45:21.581Z,964.46
2022-08-19T09:46:21.852Z,964.45
2022-08-19T09:47:22.120Z,964.34
2022-08-19T09:48:23.573Z,964.32
2022-08-19T09:49:22.704Z,964.39
2022-08-19T09:50:23.004Z,964.39
2022-08-19T09:51:23.291Z,964.36
2022-08-19T09:52:23.573Z,964.33
2022-08-19T09:53:25.573Z,964.33
2022-08-19T09:54:25.133Z,964.29
2022-08-19T09:55:24.363Z,964.32
2022-08-19T09:56:25.595Z,964.33
2022-08-19T09:57:25.158Z,964.31
2022-08-19T09:58:26.780Z,964.37
2022-08-19T09:59:25.565Z,964.34
2022-08-19T10:00:25.816Z,964.34
2022-08-19T10:01:26.160Z,964.31
2022-08-19T10:02:28.995Z,964.29
2022-08-19T10:03:30.197Z,964.26
2022-08-19T10:04:26.975Z,964.27
2022-08-19T10:05:27.248Z,964.25
2022-08-19T10:06:45.567Z,964.28
2022-08-19T10:07:36.218Z,964.22
2022-08-19T10:08:29.041Z,964.22
2022-08-19T10:09:33.836Z,964.18
2022-08-19T10:10:29.589Z,964.19
2022-08-19T10:11:36.472Z,964.22
2022-08-19T10:12:30.160Z,964.27
2022-08-19T10:13:29.480Z,964.28
2022-08-19T10:14:29.743Z,964.26
2022-08-19T10:15:30.004Z,964.26
2022-08-19T10:16:30.440Z,964.20
2022-08-19T10:17:31.683Z,964.19
2022-08-19T10:18:30.891Z,964.16
2022-08-19T10:19:31.202Z,964.18
2022-08-19T10:20:31.461Z,964.26
2022-08-19T10:21:32.220Z,964.36
2022-08-19T10:22:32.151Z,964.38
2022-08-19T10:23:33.594Z,964.43
2022-08-19T10:24:32.515Z,964.46
2022-08-19T10:25:32.774Z,964.44
2022-08-19T10:26:33.035Z,964.41
2022-08-19T10:27:34.206Z,964.38
2022-08-19T10:28:33.543Z,964.36
2022-08-19T10:29:33.806Z,964.41
2022-08-19T10:30:34.066Z,964.47
2022-08-19T10:32:02.298Z,964.43
2022-08-19T10:32:35.567Z,964.42
2022-08-19T10:33:42.634Z,964.41
2022-08-19T10:34:36.128Z,964.39
2022-08-19T10:35:42.772Z,964.37
2022-08-19T10:36:36.690Z,964.34
2022-08-19T10:37:37.147Z,964.35
2022-08-19T10:38:37.319Z,964.32
2022-08-19T10:39:42.435Z,964.32
2022-08-19T10:40:37.898Z,964.31
2022-08-19T10:41:37.220Z,964.26
2022-08-19T10:42:37.493Z,964.21
2022-08-19T10:43:37.753Z,964.14
2022-08-19T10:44:38.010Z,964.14
2022-08-19T10:45:38.270Z,964.08
2022-08-19T10:46:39.502Z,964.07
2022-08-19T10:47:38.842Z,964.10
2022-08-19T10:48:39.103Z,964.07
2022-08-19T10:49:39.360Z,964.05
2022-08-19T10:50:39.644Z,964.05
2022-08-19T10:51:46.591Z,964.08
2022-08-19T10:52:49.739Z,964.05
2022-08-19T10:53:41.424Z,964.10
2022-08-19T10:54:40.743Z,964.08
2022-08-19T10:55:41.008Z,964.07
2022-08-19T10:56:41.265Z,964.02
2022-08-19T10:58:42.867Z,964.04
2022-08-19T10:59:42.187Z,964.04
2022-08-19T11:00:42.446Z,964.03
2022-08-19T11:01:42.714Z,964.06
2022-08-19T11:02:43.857Z,964.06
2022-08-19T11:03:43.300Z,964.07
2022-08-19T11:04:43.558Z,964.04
2022-08-19T11:05:43.818Z,964.03
2022-08-19T11:06:44.087Z,964.05
2022-08-19T11:07:45.139Z,963.99
2022-08-19T11:08:44.580Z,963.99
2022-08-19T11:09:44.850Z,963.99
2022-08-19T11:10:46.801Z,963.97
2022-08-19T11:11:46.350Z,963.94
2022-08-19T11:12:45.681Z,963.96
2022-08-19T11:13:45.941Z,963.98
2022-08-19T11:14:46.203Z,963.96
2022-08-19T11:15:46.462Z,963.99
2022-08-19T11:16:46.731Z,964.00
2022-08-19T11:17:47.003Z,963.99
2022-08-19T11:18:47.263Z,964.00
2022-08-19T11:19:47.522Z,963.96
2022-08-19T11:20:47.784Z,963.91
2022-08-19T11:21:48.044Z,963.89
2022-08-19T11:22:49.144Z,963.83
2022-08-19T11:23:48.590Z,963.84
2022-08-19T11:24:48.847Z,963.87
2022-08-19T11:25:49.106Z,963.87
2022-08-19T11:26:49.375Z,963.84
2022-08-19T11:27:50.598Z,963.85
2022-08-19T11:28:49.915Z,963.85
2022-08-19T11:29:50.166Z,963.81
2022-08-19T11:30:50.427Z,963.80
2022-08-19T11:31:50.685Z,963.75
2022-08-19T11:32:51.759Z,963.77
2022-08-19T11:33:51.198Z,963.80
2022-08-19T11:34:51.456Z,963.81
2022-08-19T11:35:51.708Z,963.86
2022-08-19T11:36:51.969Z,963.84
2022-08-19T11:37:53.219Z,963.89
2022-08-19T11:38:52.568Z,963.87
2022-08-19T11:39:53.903Z,963.85
2022-08-19T11:40:53.130Z,963.84
2022-08-19T11:41:53.391Z,963.82
2022-08-19T11:42:53.661Z,963.84
2022-08-19T11:43:53.920Z,963.86
2022-08-19T11:44:54.173Z,963.84
2022-08-19T11:45:54.431Z,963.86
2022-08-19T11:46:54.683Z,963.85
2022-08-19T11:47:55.033Z,963.88
2022-08-19T11:48:55.193Z,963.90
2022-08-19T11:49:55.452Z,963.92
2022-08-19T11:50:55.704Z,963.88
2022-08-19T11:51:55.964Z,963.84
2022-08-19T11:52:56.234Z,963.84
2022-08-19T11:53:56.493Z,963.83
2022-08-19T11:54:56.760Z,963.84
2022-08-19T11:55:57.005Z,963.84
2022-08-19T11:56:57.276Z,963.86
2022-08-19T11:57:58.143Z,963.83
2022-08-19T11:58:57.827Z,963.82
2022-08-19T11:59:58.087Z,963.85
2022-08-19T12:00:58.344Z,963.80
2022-08-19T12:01:58.598Z,963.85
2022-08-19T12:02:59.667Z,963.81
2022-08-19T12:03:59.161Z,963.83
2022-08-19T12:04:59.449Z,963.80
2022-08-19T12:05:59.710Z,963.84
2022-08-19T12:06:59.971Z,963.80
2022-08-19T12:08:01.050Z,963.77
2022-08-19T12:09:00.498Z,963.77
2022-08-19T12:10:00.750Z,963.75
2022-08-19T12:11:01.050Z,963.74
2022-08-19T12:12:01.311Z,963.70
2022-08-19T12:13:01.580Z,963.69
2022-08-19T12:14:01.832Z,963.69
2022-08-19T12:15:02.093Z,963.68
2022-08-19T12:16:02.352Z,963.72
2022-08-19T12:17:02.604Z,963.78
2022-08-19T12:18:02.873Z,963.78
2022-08-19T12:19:03.154Z,963.80
2022-08-19T12:20:03.423Z,963.77
2022-08-19T12:21:03.694Z,963.78
2022-08-19T12:22:03.954Z,963.73
2022-08-19T12:23:05.035Z,963.73
2022-08-19T12:24:04.475Z,963.72
2022-08-19T12:25:04.727Z,963.70
2022-08-19T12:26:04.986Z,963.68
2022-08-19T12:27:05.244Z,963.70
2022-08-19T12:28:06.433Z,963.70
2022-08-19T12:29:05.877Z,963.64
2022-08-19T12:30:06.127Z,963.65
2022-08-19T12:31:06.388Z,963.66
2022-08-19T12:32:06.647Z,963.64
2022-08-19T12:33:07.746Z,963.63
2022-08-19T12:34:07.179Z,963.59
2022-08-19T12:35:07.491Z,963.61
2022-08-19T12:36:07.747Z,963.60
2022-08-19T12:37:08.000Z,963.63
2022-08-19T12:38:09.080Z,963.63